Augusta, NJ (07822)

12:15 PM EST on November 27, 2014 (GMT -0500)
KB2KUU / LAFAYETTE | Change Station
CLOSE
Current Station
Personal Weather Station
Location: Lafayette, NJ
Elevation: 583 ft
Nearby Weather Stations

Elev 583 ft 41.13 °N, 74.65 °W | Updated 4 seconds ago

Overcast
Overcast
32.9 °F
Feels Like 29 °F
N
4.6
Wind Variable Wind from NNW
Gusts 4.6 mph

Today
High -- | Low -- °F
--% Chance of Precip.
Yesterday
High -- | Low -- °F
Precip. -- in
7:00 AM 4:32 PM
Waxing Crescent, 31% visible
Pressure 29.98 in
Visibility 2.0 miles
Clouds Scattered Clouds 1200 ft
Overcast 3400 ft
Windchill 29 °F
Dew Point 29 °F
Humidity 85%
Rainfall 0.07 in
Snow Depth Not available.
UV 1 out of 12
Pollen .10 out of 12
Air Quality Not available.
Flu Activity Not available.
SPECI KFWN 271705Z AUTO 00000KT 2SM -SN BR SCT012 OVC034 01/M01 A2998 RMK AO2 P0001 T00061011

More Conditions Fewer Conditions

Pressure 29.98 in
Visibility 2.0 miles
Clouds Scattered Clouds 1200 ft
Overcast 3400 ft
Windchill 29 °F
Dew Point 29 °F
Humidity 85%
Rainfall 0.07 in
Snow Depth Not available.
UV 1 out of 12
Pollen .10 out of 12
Air Quality Not available.
Flu Activity Not available.
SPECI KFWN 271705Z AUTO 00000KT 2SM -SN BR SCT012 OVC034 01/M01 A2998 RMK AO2 P0001 T00061011

More Conditions Fewer Conditions

Nowcast | as of 11:59 am EST on November 27, 2014

An area of light snow will continue to affect portions of northern New Jersey. Little to no snow accumulations is expected for most areas, although a light dusting may occur with the heaviest showers. Drivers are urged to use caution and be alert for changing weather conditions and roadway conditions.

×

10-Day Weather Forecast

Almanac

Astronomy

Nov. 27, 2014 Rise Set
Actual Time
Civil Twilight
Nautical Twilight
Astronomical Twilight
Moon
Length of Visible Light
Length of Day
Tomorrow will be .
, % of the Moon is Illuminated

Today's Extremes

State Highs State Lows

Community

WunderPhotos

Upload Photos

1,774,046 photos uploaded!

WunderBlogs® & News

Nearby

Air Quality

  Air Quality AQ Index Pollutant
Not available.

Snow Depth

Station Depth Elevation

Earthquake Activity

City Distance Mag. Time & Date
Minimum magnitude displayed is 2.5.

Coastal Water Temperatures

Place Temperature

Nearby Weather Stations